createdAt,value
2019-06-08T00:01:28.527Z,1.13
2019-06-08T00:04:00.148Z,1.10
2019-06-08T00:06:28.067Z,1.20
2019-06-08T00:08:55.772Z,1.00
2019-06-08T00:11:24.904Z,1.10
2019-06-08T00:13:55.035Z,1.07
2019-06-08T00:16:23.772Z,1.37
2019-06-08T00:18:53.677Z,1.20
2019-06-08T00:21:21.773Z,1.13
2019-06-08T00:23:49.443Z,1.10
2019-06-08T00:26:18.041Z,1.17
2019-06-08T00:28:45.716Z,1.40
2019-06-08T00:31:13.334Z,1.10
2019-06-08T00:33:40.972Z,1.20
2019-06-08T00:36:08.586Z,1.43
2019-06-08T00:38:37.308Z,1.20
2019-06-08T00:41:04.969Z,1.50
2019-06-08T00:43:32.616Z,1.33
2019-06-08T00:46:00.322Z,1.30
2019-06-08T00:48:28.774Z,1.47
2019-06-08T00:50:56.511Z,1.50
2019-06-08T00:53:25.306Z,1.30
2019-06-08T00:55:53.882Z,1.20
2019-06-08T00:58:24.203Z,1.30
2019-06-08T01:00:51.998Z,1.17
2019-06-08T01:03:19.699Z,1.20
2019-06-08T01:05:47.458Z,1.30
2019-06-08T01:08:16.272Z,1.07
2019-06-08T01:10:44.069Z,1.80
2019-06-08T01:13:11.686Z,1.80
2019-06-08T01:15:39.340Z,1.90
2019-06-08T01:18:09.892Z,2.80
2019-06-08T01:20:37.467Z,2.90
2019-06-08T01:23:05.138Z,2.90
2019-06-08T01:25:32.769Z,1.90
2019-06-08T01:28:00.415Z,1.67
2019-06-08T01:30:28.564Z,1.90
2019-06-08T01:32:56.291Z,1.90
2019-06-08T01:35:24.888Z,1.80
2019-06-08T01:37:52.559Z,1.40
2019-06-08T01:40:21.290Z,1.10
2019-06-08T01:42:49.056Z,1.30
2019-06-08T01:45:30.095Z,1.30
2019-06-08T01:47:59.001Z,1.40
2019-06-08T01:50:27.029Z,1.23
2019-06-08T01:52:54.636Z,1.40
2019-06-08T01:55:23.012Z,1.50
2019-06-08T01:57:50.705Z,2.50
2019-06-08T02:00:29.833Z,1.60
2019-06-08T02:02:48.037Z,1.37
2019-06-08T02:05:15.811Z,1.37
2019-06-08T02:07:43.441Z,1.53
2019-06-08T02:10:11.202Z,1.50
2019-06-08T02:12:38.861Z,1.30
2019-06-08T02:15:06.808Z,1.53
2019-06-08T02:17:35.572Z,1.53
2019-06-08T02:20:04.165Z,1.17
2019-06-08T02:22:32.949Z,1.40
2019-06-08T02:25:00.693Z,1.30
2019-06-08T02:27:29.279Z,1.43
2019-06-08T02:29:56.954Z,1.30
2019-06-08T02:32:24.581Z,1.20
2019-06-08T02:34:52.199Z,1.30
2019-06-08T02:37:19.862Z,1.40
2019-06-08T02:39:47.488Z,1.50
2019-06-08T02:42:15.137Z,1.50
2019-06-08T02:44:44.839Z,1.30
2019-06-08T02:47:16.183Z,1.63
2019-06-08T02:49:41.948Z,1.40
2019-06-08T02:52:09.797Z,1.30
2019-06-08T02:54:39.099Z,1.90
2019-06-08T02:57:06.861Z,1.70
2019-06-08T02:59:37.761Z,1.97
2019-06-08T03:02:05.418Z,1.40
2019-06-08T03:04:36.505Z,1.47
2019-06-08T03:07:05.318Z,1.40
2019-06-08T03:09:34.624Z,1.90
2019-06-08T03:12:02.447Z,1.30
2019-06-08T03:14:31.049Z,1.30
2019-06-08T03:16:58.808Z,1.53
2019-06-08T03:19:26.424Z,1.87
2019-06-08T03:21:54.092Z,1.70
2019-06-08T03:24:21.691Z,1.93
2019-06-08T03:26:49.332Z,1.40
2019-06-08T03:29:16.944Z,1.70
2019-06-08T03:31:54.318Z,1.43
2019-06-08T03:34:13.985Z,1.73
2019-06-08T03:36:53.579Z,1.60
2019-06-08T03:39:11.050Z,1.43
2019-06-08T03:41:40.318Z,1.70
2019-06-08T03:44:08.100Z,1.60
2019-06-08T03:46:36.395Z,1.50
2019-06-08T03:49:04.152Z,1.67
2019-06-08T03:51:35.288Z,1.60
2019-06-08T03:54:01.274Z,1.53
2019-06-08T03:56:28.958Z,1.60
2019-06-08T03:58:56.595Z,1.40
2019-06-08T04:01:24.222Z,1.90
2019-06-08T04:03:51.869Z,1.30
2019-06-08T04:06:19.463Z,2.00
2019-06-08T04:08:47.640Z,1.60
2019-06-08T04:11:17.496Z,1.90
2019-06-08T04:13:46.925Z,1.70
2019-06-08T04:16:15.748Z,1.70
2019-06-08T04:18:44.534Z,1.73
2019-06-08T04:21:12.832Z,1.60
2019-06-08T04:23:41.131Z,1.70
2019-06-08T04:26:09.901Z,1.43
2019-06-08T04:28:38.348Z,1.50
2019-06-08T04:31:06.149Z,1.97
2019-06-08T04:33:33.808Z,2.07
2019-06-08T04:36:01.427Z,1.70
2019-06-08T04:38:29.072Z,1.60
2019-06-08T04:40:56.695Z,1.50
2019-06-08T04:43:24.400Z,2.10
2019-06-08T04:45:52.025Z,1.67
2019-06-08T04:48:19.720Z,1.60
2019-06-08T04:50:49.281Z,1.70
2019-06-08T04:53:17.850Z,1.77
2019-06-08T04:55:46.912Z,1.90
2019-06-08T04:58:14.810Z,1.63
2019-06-08T05:00:43.992Z,1.47
2019-06-08T05:03:11.944Z,1.63
2019-06-08T05:05:40.980Z,1.90
2019-06-08T05:08:08.771Z,1.53
2019-06-08T05:10:36.402Z,2.20
2019-06-08T05:13:04.060Z,1.73
2019-06-08T05:15:31.674Z,2.30
2019-06-08T05:17:59.329Z,1.53
2019-06-08T05:20:38.526Z,1.60
2019-06-08T05:22:56.947Z,1.70
2019-06-08T05:25:24.588Z,1.80
2019-06-08T05:27:52.224Z,1.70
2019-06-08T05:30:20.054Z,1.93
2019-06-08T05:32:47.714Z,1.70
2019-06-08T05:35:17.282Z,1.80
2019-06-08T05:37:45.564Z,1.70
2019-06-08T05:40:13.481Z,2.10
2019-06-08T05:42:42.802Z,2.10
2019-06-08T05:45:10.795Z,1.70
2019-06-08T05:47:39.660Z,1.83
2019-06-08T05:50:07.462Z,2.10
2019-06-08T05:52:35.168Z,1.73
2019-06-08T05:55:03.219Z,2.00
2019-06-08T05:57:30.953Z,1.80
2019-06-08T05:59:58.617Z,2.70
2019-06-08T06:02:26.265Z,2.27
2019-06-08T06:04:54.082Z,2.23
2019-06-08T06:07:21.762Z,2.87
2019-06-08T06:09:49.400Z,1.97
2019-06-08T06:12:17.063Z,2.17
2019-06-08T06:14:44.964Z,2.10
2019-06-08T06:17:12.677Z,1.90
2019-06-08T06:19:41.070Z,2.00
2019-06-08T06:22:10.634Z,2.30
2019-06-08T06:24:38.201Z,2.20
2019-06-08T06:27:05.812Z,2.37
2019-06-08T06:29:33.629Z,1.70
2019-06-08T06:32:01.263Z,2.20
2019-06-08T06:34:29.020Z,2.13
2019-06-08T06:36:57.459Z,2.00
2019-06-08T06:39:27.258Z,2.30
2019-06-08T06:41:54.769Z,2.30
2019-06-08T06:44:24.154Z,2.30
2019-06-08T06:46:52.417Z,2.67
2019-06-08T06:49:20.335Z,2.30
2019-06-08T06:51:48.429Z,2.57
2019-06-08T06:54:17.866Z,2.73
2019-06-08T06:56:45.467Z,2.57
2019-06-08T06:59:13.361Z,1.90
2019-06-08T07:01:41.021Z,2.20
2019-06-08T07:04:10.416Z,2.27
2019-06-08T07:06:38.151Z,2.13
2019-06-08T07:09:07.935Z,2.30
2019-06-08T07:11:36.949Z,2.40
2019-06-08T07:14:04.572Z,2.37
2019-06-08T07:16:32.235Z,2.57
2019-06-08T07:18:59.879Z,2.10
2019-06-08T07:21:40.989Z,2.00
2019-06-08T07:23:56.984Z,2.30
2019-06-08T07:26:24.626Z,2.63
2019-06-08T07:28:53.605Z,2.13
2019-06-08T07:31:21.659Z,2.37
2019-06-08T07:33:51.507Z,2.53
2019-06-08T07:36:18.702Z,2.30
2019-06-08T07:38:46.957Z,2.40
2019-06-08T07:41:15.746Z,2.27
2019-06-08T07:43:43.348Z,2.30
2019-06-08T07:46:10.975Z,2.60
2019-06-08T07:48:38.593Z,1.90
2019-06-08T07:51:06.409Z,2.27
2019-06-08T07:53:34.023Z,2.00
2019-06-08T07:56:01.649Z,2.30
2019-06-08T07:58:30.107Z,2.20
2019-06-08T08:01:03.986Z,2.40
2019-06-08T08:03:27.216Z,2.00
2019-06-08T08:05:55.433Z,2.50
2019-06-08T08:08:24.297Z,2.50
2019-06-08T08:10:54.618Z,2.10
2019-06-08T08:13:23.492Z,2.60
2019-06-08T08:15:51.171Z,2.10
2019-06-08T08:18:18.803Z,2.20
2019-06-08T08:20:46.443Z,2.73
2019-06-08T08:23:14.118Z,2.80
2019-06-08T08:25:41.858Z,2.53
2019-06-08T08:28:09.516Z,3.33
2019-06-08T08:30:37.675Z,2.20
2019-06-08T08:33:07.808Z,2.63
2019-06-08T08:35:38.092Z,2.30
2019-06-08T08:38:07.586Z,2.40
2019-06-08T08:40:35.072Z,2.30
2019-06-08T08:43:02.751Z,2.17
2019-06-08T08:45:30.376Z,2.93
2019-06-08T08:48:16.818Z,2.70
2019-06-08T08:50:28.333Z,2.80
2019-06-08T08:52:56.943Z,3.07
2019-06-08T08:55:27.853Z,2.53
2019-06-08T08:57:54.975Z,2.70
2019-06-08T09:00:23.528Z,2.57
2019-06-08T09:03:10.752Z,2.60
2019-06-08T09:05:20.727Z,2.87
2019-06-08T09:07:48.437Z,2.70
2019-06-08T09:10:18.144Z,2.60
2019-06-08T09:12:48.369Z,2.90
2019-06-08T09:15:19.016Z,3.17
2019-06-08T09:17:48.147Z,2.63
2019-06-08T09:20:16.568Z,3.17
2019-06-08T09:22:53.984Z,3.10
2019-06-08T09:25:14.129Z,2.83
2019-06-08T09:27:41.843Z,2.30
2019-06-08T09:30:09.567Z,2.47
2019-06-08T09:32:38.262Z,2.13
2019-06-08T09:35:09.082Z,2.27
2019-06-08T09:37:37.540Z,2.43
2019-06-08T09:40:05.145Z,2.10
2019-06-08T09:42:32.741Z,2.40
2019-06-08T09:45:03.085Z,2.37
2019-06-08T09:47:29.785Z,1.93
2019-06-08T09:50:01.748Z,2.67
2019-06-08T09:52:28.270Z,2.17
2019-06-08T09:54:59.274Z,1.70
2019-06-08T09:57:28.287Z,2.03
2019-06-08T09:59:57.130Z,2.70
2019-06-08T10:02:24.565Z,2.13
2019-06-08T10:04:52.220Z,2.40
2019-06-08T10:07:19.838Z,1.80
2019-06-08T10:09:50.023Z,2.40
2019-06-08T10:12:18.203Z,2.07
2019-06-08T10:14:48.781Z,2.80
2019-06-08T10:17:20.570Z,2.07
2019-06-08T10:19:47.558Z,2.30
2019-06-08T10:22:14.426Z,1.77
2019-06-08T10:24:42.085Z,2.60
2019-06-08T10:27:11.630Z,2.13
2019-06-08T10:29:39.140Z,2.10
2019-06-08T10:32:08.930Z,2.20
2019-06-08T10:34:38.649Z,2.20
2019-06-08T10:37:12.521Z,2.20
2019-06-08T10:39:37.968Z,2.60
2019-06-08T10:42:07.439Z,2.07
2019-06-08T10:44:35.194Z,1.80
2019-06-08T10:47:04.872Z,2.23
2019-06-08T10:49:34.035Z,2.40
2019-06-08T10:52:03.580Z,2.20
2019-06-08T10:54:31.142Z,2.17
2019-06-08T10:57:00.313Z,2.13
2019-06-08T10:59:28.920Z,2.33
2019-06-08T11:02:00.929Z,2.10
2019-06-08T11:04:28.657Z,1.93
2019-06-08T11:07:01.042Z,1.80
2019-06-08T11:09:28.310Z,1.97
2019-06-08T11:11:57.948Z,2.20
2019-06-08T11:14:24.997Z,2.47
2019-06-08T11:16:53.814Z,2.53
2019-06-08T11:19:26.295Z,2.25
2019-06-08T11:21:52.511Z,1.90
2019-06-08T11:24:24.578Z,2.17
2019-06-08T11:26:49.594Z,2.10
2019-06-08T11:29:18.751Z,2.47
2019-06-08T11:31:47.991Z,2.30
2019-06-08T11:34:19.052Z,2.07
2019-06-08T11:36:45.538Z,1.80
2019-06-08T11:39:13.207Z,1.93
2019-06-08T11:41:40.833Z,1.90
2019-06-08T11:44:12.542Z,2.13
2019-06-08T11:46:38.487Z,2.23
2019-06-08T11:49:11.761Z,1.90
2019-06-08T11:51:37.873Z,2.10
2019-06-08T11:54:24.475Z,1.90
2019-06-08T11:56:37.605Z,1.83
2019-06-08T11:59:05.244Z,1.83
2019-06-08T12:01:34.888Z,2.40
2019-06-08T12:04:03.549Z,1.98
2019-06-08T12:06:31.254Z,2.00
2019-06-08T12:09:00.268Z,1.80
2019-06-08T12:11:28.460Z,2.10
2019-06-08T12:13:58.357Z,2.22
2019-06-08T12:16:28.092Z,2.10
2019-06-08T12:18:55.100Z,2.20
2019-06-08T12:21:22.767Z,2.50
2019-06-08T12:23:50.397Z,2.50
2019-06-08T12:26:18.083Z,1.67
2019-06-08T12:28:45.656Z,2.20
2019-06-08T12:31:17.317Z,1.85
2019-06-08T12:33:48.943Z,2.52
2019-06-08T12:36:17.879Z,1.90
2019-06-08T12:38:46.026Z,1.77
2019-06-08T12:41:14.107Z,2.30
2019-06-08T12:43:43.078Z,2.20
2019-06-08T12:46:12.556Z,2.15
2019-06-08T12:48:40.737Z,2.27
2019-06-08T12:51:10.568Z,2.58
2019-06-08T12:53:38.169Z,2.00
2019-06-08T12:56:06.120Z,1.80
2019-06-08T12:58:33.781Z,1.92
2019-06-08T13:01:01.439Z,1.62
2019-06-08T13:03:29.934Z,2.20
2019-06-08T13:05:57.662Z,2.20
2019-06-08T13:08:25.301Z,2.35
2019-06-08T13:10:52.904Z,1.65
2019-06-08T13:13:24.461Z,2.10
2019-06-08T13:15:49.988Z,1.98
2019-06-08T13:18:19.806Z,2.02
2019-06-08T13:20:49.015Z,3.12
2019-06-08T13:23:19.602Z,2.83
2019-06-08T13:25:48.006Z,2.40
2019-06-08T13:28:19.360Z,2.10
2019-06-08T13:30:44.853Z,2.30
2019-06-08T13:33:12.513Z,1.85
2019-06-08T13:35:40.118Z,1.70
2019-06-08T13:38:08.730Z,1.72
2019-06-08T13:40:37.705Z,2.00
2019-06-08T13:43:07.974Z,1.80
2019-06-08T13:45:35.307Z,2.58
2019-06-08T13:48:02.937Z,1.70
2019-06-08T13:50:30.552Z,2.00
2019-06-08T13:52:59.998Z,2.05
2019-06-08T13:55:47.598Z,1.87
2019-06-08T13:57:58.088Z,1.67
2019-06-08T14:00:32.309Z,1.70
2019-06-08T14:03:00.873Z,2.20
2019-06-08T14:05:30.841Z,2.10
2019-06-08T14:07:59.604Z,1.62
2019-06-08T14:10:34.121Z,1.72
2019-06-08T14:13:03.230Z,2.58
2019-06-08T14:15:32.612Z,2.45
2019-06-08T14:18:00.469Z,1.92
2019-06-08T14:20:33.680Z,2.15
2019-06-08T14:22:58.859Z,1.70
2019-06-08T14:25:28.890Z,2.00
2019-06-08T14:27:57.597Z,1.50
2019-06-08T14:30:28.049Z,1.45
2019-06-08T14:32:54.783Z,2.00
2019-06-08T14:35:23.826Z,3.15
2019-06-08T14:37:51.861Z,2.85
2019-06-08T14:40:19.511Z,2.75
2019-06-08T14:42:48.524Z,3.22
2019-06-08T14:45:18.175Z,2.25
2019-06-08T14:47:47.558Z,2.02
2019-06-08T14:50:15.206Z,1.90
2019-06-08T14:52:42.836Z,1.98
2019-06-08T14:55:10.466Z,1.60
2019-06-08T14:57:40.302Z,2.10
2019-06-08T15:00:11.361Z,1.70
2019-06-08T15:02:38.103Z,1.95
2019-06-08T15:05:07.792Z,2.40
2019-06-08T15:07:35.188Z,2.98
2019-06-08T15:10:03.251Z,2.10
2019-06-08T15:12:31.475Z,1.90
2019-06-08T15:14:59.193Z,1.70
2019-06-08T15:17:28.947Z,1.83
2019-06-08T15:19:58.431Z,1.90
2019-06-08T15:22:26.816Z,1.80
2019-06-08T15:24:57.876Z,2.30
2019-06-08T15:27:26.474Z,2.47
2019-06-08T15:29:54.984Z,3.07
2019-06-08T15:32:22.941Z,2.60
2019-06-08T15:34:50.928Z,2.83
2019-06-08T15:37:18.744Z,2.60
2019-06-08T15:39:48.586Z,3.13
2019-06-08T15:42:17.897Z,2.57
2019-06-08T15:44:47.845Z,2.70
2019-06-08T15:47:14.822Z,2.10
2019-06-08T15:49:42.617Z,2.10
2019-06-08T15:52:10.381Z,2.10
2019-06-08T15:54:41.024Z,2.30
2019-06-08T15:57:08.094Z,2.50
2019-06-08T15:59:38.950Z,2.13
2019-06-08T16:02:05.230Z,2.10
2019-06-08T16:04:33.895Z,2.57
2019-06-08T16:07:01.774Z,2.50
2019-06-08T16:09:29.982Z,2.50
2019-06-08T16:11:59.504Z,2.80
2019-06-08T16:14:27.087Z,2.03
2019-06-08T16:16:54.662Z,2.50
2019-06-08T16:19:22.305Z,2.40
2019-06-08T16:21:49.952Z,3.03
2019-06-08T16:24:17.623Z,4.90
2019-06-08T16:26:53.402Z,2.37
2019-06-08T16:29:14.728Z,2.40
2019-06-08T16:31:42.350Z,2.40
2019-06-08T16:34:09.989Z,2.20
2019-06-08T16:36:40.146Z,1.77
2019-06-08T16:39:07.894Z,2.10
2019-06-08T16:41:36.134Z,2.10
2019-06-08T16:44:06.891Z,1.90
2019-06-08T16:46:34.769Z,1.75
2019-06-08T16:49:02.550Z,1.72
2019-06-08T16:51:31.239Z,1.98
2019-06-08T16:53:59.117Z,3.00
2019-06-08T16:56:27.754Z,2.35
2019-06-08T16:58:55.453Z,2.10
2019-06-08T17:01:23.112Z,2.10
2019-06-08T17:03:50.813Z,1.70
2019-06-08T17:06:18.473Z,2.20
2019-06-08T17:08:46.120Z,2.10
2019-06-08T17:11:13.736Z,2.40
2019-06-08T17:13:41.347Z,2.67
2019-06-08T17:16:09.006Z,2.30
2019-06-08T17:18:36.641Z,2.70
2019-06-08T17:21:04.788Z,2.60
2019-06-08T17:23:32.485Z,2.50
2019-06-08T17:26:00.074Z,2.50
2019-06-08T17:28:27.723Z,2.63
2019-06-08T17:30:55.354Z,2.93
2019-06-08T17:33:23.036Z,2.27
2019-06-08T17:35:50.674Z,2.60
2019-06-08T17:38:18.442Z,2.80
2019-06-08T17:40:46.126Z,3.27
2019-06-08T17:43:13.720Z,2.50
2019-06-08T17:45:42.755Z,2.27
2019-06-08T17:48:13.210Z,2.43
2019-06-08T17:53:14.398Z,3.80
2019-06-08T17:55:43.538Z,8.07
2019-06-08T17:58:11.592Z,7.73
2019-06-08T18:00:39.550Z,4.93
2019-06-08T18:03:08.378Z,3.40
2019-06-08T18:05:39.383Z,3.07
2019-06-08T18:08:07.708Z,2.60
2019-06-08T18:10:36.456Z,2.70
2019-06-08T18:13:04.545Z,2.53
2019-06-08T18:15:32.230Z,2.50
2019-06-08T18:17:59.920Z,2.40
2019-06-08T18:20:28.346Z,2.37
2019-06-08T18:22:57.886Z,2.60
2019-06-08T18:25:27.891Z,2.70
2019-06-08T18:28:07.186Z,2.50
2019-06-08T18:30:28.308Z,2.50
2019-06-08T18:32:57.934Z,2.30
2019-06-08T18:35:27.767Z,2.20
2019-06-08T18:37:57.826Z,2.90
2019-06-08T18:40:27.579Z,3.07
2019-06-08T18:42:57.490Z,2.60
2019-06-08T18:45:27.452Z,2.90
2019-06-08T18:47:54.466Z,2.43
2019-06-08T18:50:22.240Z,3.30
2019-06-08T18:52:50.139Z,2.70
2019-06-08T18:55:18.392Z,2.60
2019-06-08T18:57:48.400Z,2.53
2019-06-08T19:00:15.645Z,2.83
2019-06-08T19:02:45.356Z,2.50
2019-06-08T19:05:13.060Z,2.50
2019-06-08T19:07:41.279Z,2.27
2019-06-08T19:10:09.085Z,2.77
2019-06-08T19:12:43.285Z,2.33
2019-06-08T19:15:11.678Z,2.70
2019-06-08T19:17:43.910Z,2.40
2019-06-08T19:20:08.930Z,2.53
2019-06-08T19:22:38.831Z,2.87
2019-06-08T19:25:07.820Z,2.30
2019-06-08T19:27:40.632Z,2.20
2019-06-08T19:30:05.062Z,2.60
2019-06-08T19:32:33.978Z,2.30
2019-06-08T19:35:01.604Z,2.50
2019-06-08T19:37:32.626Z,2.30
2019-06-08T19:39:58.677Z,2.63
2019-06-08T19:42:37.006Z,2.00
2019-06-08T19:45:04.923Z,2.33
2019-06-08T19:47:27.621Z,2.10
2019-06-08T19:49:55.365Z,2.20
2019-06-08T19:52:23.993Z,2.00
2019-06-08T19:54:53.846Z,2.17
2019-06-08T19:57:21.014Z,2.47
2019-06-08T19:59:49.651Z,1.90
2019-06-08T20:02:17.761Z,2.00
2019-06-08T20:04:45.433Z,2.00
2019-06-08T20:07:13.041Z,1.93
2019-06-08T20:09:41.065Z,2.00
2019-06-08T20:12:08.765Z,2.40
2019-06-08T20:14:37.414Z,2.00
2019-06-08T20:17:05.141Z,2.00
2019-06-08T20:19:32.764Z,2.00
2019-06-08T20:22:00.371Z,2.10
2019-06-08T20:24:28.267Z,2.20
2019-06-08T20:26:56.046Z,2.10
2019-06-08T20:29:23.685Z,2.20
2019-06-08T20:31:51.662Z,2.30
2019-06-08T20:34:19.420Z,2.10
2019-06-08T20:36:47.046Z,2.40
2019-06-08T20:39:14.694Z,2.20
2019-06-08T20:41:42.343Z,2.10
2019-06-08T20:44:09.998Z,2.60
2019-06-08T20:46:37.896Z,2.47
2019-06-08T20:49:08.183Z,2.70
2019-06-08T20:51:37.425Z,2.60
2019-06-08T20:54:07.694Z,2.60
2019-06-08T20:56:37.032Z,2.27
2019-06-08T20:59:04.315Z,2.20
2019-06-08T21:01:31.949Z,2.13
2019-06-08T21:03:59.617Z,2.20
2019-06-08T21:06:27.961Z,2.27
2019-06-08T21:08:57.626Z,2.10
2019-06-08T21:11:27.130Z,2.33
2019-06-08T21:13:56.252Z,2.33
2019-06-08T21:16:23.874Z,2.23
2019-06-08T21:18:51.482Z,2.10
2019-06-08T21:21:19.103Z,2.20
2019-06-08T21:23:53.054Z,2.20
2019-06-08T21:26:19.746Z,2.10
2019-06-08T21:28:51.293Z,1.83
2019-06-08T21:31:17.761Z,2.30
2019-06-08T21:33:49.079Z,2.67
2019-06-08T21:36:14.855Z,2.47
2019-06-08T21:38:42.489Z,2.47
2019-06-08T21:41:10.581Z,2.43
2019-06-08T21:43:38.223Z,2.50
2019-06-08T21:46:07.846Z,2.50
2019-06-08T21:48:35.398Z,2.37
2019-06-08T21:51:03.078Z,2.40
2019-06-08T21:53:30.731Z,2.30
2019-06-08T21:55:58.465Z,2.23
2019-06-08T21:58:26.179Z,2.70
2019-06-08T22:00:54.767Z,2.10
2019-06-08T22:03:22.553Z,2.20
2019-06-08T22:05:50.190Z,2.90
2019-06-08T22:08:17.805Z,2.70
2019-06-08T22:10:47.115Z,2.87
2019-06-08T22:13:17.304Z,3.47
2019-06-08T22:15:44.332Z,3.47
2019-06-08T22:18:11.950Z,3.07
2019-06-08T22:20:39.593Z,3.20
2019-06-08T22:23:07.399Z,3.20
2019-06-08T22:25:35.220Z,3.37
2019-06-08T22:28:03.950Z,3.03
2019-06-08T22:30:39.248Z,2.83
2019-06-08T22:33:01.136Z,2.87
2019-06-08T22:35:29.929Z,3.00
2019-06-08T22:37:58.081Z,3.03
2019-06-08T22:40:28.115Z,2.90
2019-06-08T22:42:57.791Z,3.20
2019-06-08T22:45:28.230Z,3.43
2019-06-08T22:47:58.615Z,3.50
2019-06-08T22:50:27.405Z,3.17
2019-06-08T22:52:55.831Z,2.97
2019-06-08T22:55:27.765Z,2.67
2019-06-08T22:57:55.467Z,3.03
2019-06-08T23:00:24.890Z,3.40
2019-06-08T23:02:54.428Z,3.53
2019-06-08T23:05:21.965Z,3.10
2019-06-08T23:07:49.589Z,3.30
2019-06-08T23:10:17.525Z,3.50
2019-06-08T23:12:47.125Z,3.40
2019-06-08T23:15:14.623Z,3.23
2019-06-08T23:17:42.248Z,3.23
2019-06-08T23:20:10.065Z,3.47
2019-06-08T23:22:38.522Z,3.00
2019-06-08T23:25:09.149Z,3.17
2019-06-08T23:27:37.947Z,2.93
2019-06-08T23:30:09.995Z,3.33
2019-06-08T23:32:38.355Z,3.20
2019-06-08T23:35:07.910Z,3.13
2019-06-08T23:37:37.388Z,3.30
2019-06-08T23:40:05.950Z,3.30
2019-06-08T23:42:33.589Z,2.77
2019-06-08T23:45:02.305Z,3.53
2019-06-08T23:47:30.056Z,3.13
2019-06-08T23:50:23.667Z,3.07
2019-06-08T23:52:51.351Z,3.00
2019-06-08T23:55:19.061Z,3.40
2019-06-08T23:57:46.711Z,2.93
